Time;durP1;ratioP1;P1;durP2;ratioP2;P2;SDS_P1;SDS_P2;PMS_P1;PMS_P2;Temp;Humidity;BMP_temperature;BMP_pressure;BME280_temperature;BME280_humidity;BME280_pressure;Samples;Min_cycle;Max_cycle;Signal;HPM_P1;HPM_P2
2022/08/03 00:00:45;;;;;;;4.67;2.45;;;26.70;99.90;;;;;;1839518;77;21074;-71
2022/08/03 00:03:17;;;;;;;4.25;2.05;;;26.70;99.90;;;;;;1851987;76;21609;-72
2022/08/03 00:05:48;;;;;;;4.42;2.50;;;26.70;99.90;;;;;;1842345;76;21127;-71
2022/08/03 00:08:20;;;;;;;7.17;2.80;;;26.70;99.90;;;;;;1825786;77;21548;-73
2022/08/03 00:10:51;;;;;;;3.72;2.45;;;26.70;99.90;;;;;;1856505;76;21154;-71
2022/08/03 00:13:22;;;;;;;4.75;2.35;;;26.70;99.90;;;;;;1793946;78;21156;-71
2022/08/03 00:15:54;;;;;;;4.58;2.37;;;26.70;99.90;;;;;;1792849;79;21606;-71
2022/08/03 00:18:25;;;;;;;4.60;2.30;;;26.80;99.90;;;;;;1811204;78;21437;-72
2022/08/03 00:20:56;;;;;;;5.42;2.55;;;26.80;99.90;;;;;;1794636;78;21178;-71
2022/08/03 00:23:27;;;;;;;2.83;2.12;;;26.80;99.90;;;;;;1792399;79;21573;-71
2022/08/03 00:25:59;;;;;;;5.95;2.40;;;26.90;99.90;;;;;;1835469;77;21237;-70
2022/08/03 00:28:30;;;;;;;3.80;2.00;;;26.90;99.90;;;;;;1800815;79;21155;-71
2022/08/03 00:31:01;;;;;;;4.90;2.42;;;27.00;99.90;;;;;;1805512;78;21146;-71
2022/08/03 00:33:32;;;;;;;4.75;2.60;;;27.10;99.90;;;;;;1802976;78;21190;-71
2022/08/03 00:36:04;;;;;;;5.20;2.20;;;27.10;99.90;;;;;;1794556;78;21261;-71
2022/08/03 00:38:35;;;;;;;3.95;2.35;;;27.10;99.90;;;;;;1821890;78;21144;-71
2022/08/03 00:41:06;;;;;;;4.00;2.00;;;27.20;99.90;;;;;;1853227;77;21081;-71
2022/08/03 00:43:37;;;;;;;3.67;2.02;;;27.20;99.90;;;;;;1824431;77;21206;-71
2022/08/03 00:46:08;;;;;;;5.45;2.65;;;27.20;99.90;;;;;;1835014;77;21685;-71
2022/08/03 00:48:39;;;;;;;6.35;2.20;;;27.20;99.90;;;;;;1843114;77;22156;-70
2022/08/03 00:51:10;;;;;;;3.60;2.08;;;27.30;99.90;;;;;;1804510;78;21166;-71
2022/08/03 00:53:41;;;;;;;4.50;2.20;;;27.30;99.90;;;;;;1848276;76;21239;-70
2022/08/03 00:56:14;;;;;;;6.03;2.30;;;27.30;99.90;;;;;;1837470;77;21272;-71
2022/08/03 00:58:46;;;;;;;5.53;2.87;;;27.30;99.90;;;;;;1817683;77;21132;-71
2022/08/03 01:01:17;;;;;;;3.10;2.00;;;27.30;99.90;;;;;;1821812;77;21637;-70
2022/08/03 01:03:48;;;;;;;2.70;2.00;;;27.30;99.90;;;;;;1777889;80;21124;-70
2022/08/03 01:06:22;;;;;;;4.00;2.15;;;27.30;99.90;;;;;;1837462;77;21609;-71
2022/08/03 01:08:55;;;;;;;4.75;2.37;;;27.20;99.90;;;;;;1835858;77;21201;-71
2022/08/03 01:11:28;;;;;;;5.97;3.20;;;27.30;99.90;;;;;;1801763;79;21174;-71
2022/08/03 01:14:01;;;;;;;4.83;2.67;;;27.20;99.90;;;;;;1800855;79;21178;-71
2022/08/03 01:16:36;;;;;;;4.85;2.25;;;27.30;99.90;;;;;;1794749;78;21101;-71
2022/08/03 01:19:09;;;;;;;6.70;2.77;;;27.30;99.90;;;;;;1795411;77;21154;-71
2022/08/03 01:21:42;;;;;;;5.60;2.50;;;27.30;99.90;;;;;;1840482;77;21631;-71
2022/08/03 01:24:17;;;;;;;5.15;2.95;;;27.30;99.90;;;;;;1824545;77;21194;-71
2022/08/03 01:26:51;;;;;;;7.35;2.85;;;27.30;99.90;;;;;;1834360;77;21661;-70
2022/08/03 01:29:24;;;;;;;7.62;2.75;;;27.30;99.90;;;;;;1835915;76;21154;-78
2022/08/03 01:31:58;;;;;;;5.60;2.70;;;27.30;99.90;;;;;;1840367;77;21187;-80
2022/08/03 01:34:32;;;;;;;7.08;2.40;;;27.40;99.90;;;;;;1854322;76;21942;-79
2022/08/03 01:37:05;;;;;;;3.92;2.80;;;27.40;99.90;;;;;;1829187;77;21568;-81
2022/08/03 01:39:39;;;;;;;3.77;2.42;;;27.40;99.90;;;;;;1840970;77;21134;-80
2022/08/03 01:42:12;;;;;;;7.35;2.92;;;27.50;99.90;;;;;;1796770;78;21237;-80
2022/08/03 01:44:47;;;;;;;5.10;2.45;;;27.60;99.90;;;;;;1782528;80;21211;-80
2022/08/03 01:47:20;;;;;;;8.38;2.70;;;27.60;99.90;;;;;;1830431;77;21103;-79
2022/08/03 01:49:56;;;;;;;5.53;2.87;;;27.60;99.90;;;;;;1846320;77;21153;-80
2022/08/03 01:52:30;;;;;;;4.90;3.25;;;27.70;99.90;;;;;;1812729;78;21628;-79
2022/08/03 01:55:03;;;;;;;6.58;2.98;;;27.70;99.90;;;;;;1831414;77;21133;-80
2022/08/03 01:57:35;;;;;;;4.17;2.85;;;27.70;99.90;;;;;;1839608;77;21095;-81
2022/08/03 02:00:11;;;;;;;5.35;2.62;;;27.70;99.90;;;;;;1830523;76;21696;-81
2022/08/03 02:02:42;;;;;;;11.40;4.75;;;27.80;99.90;;;;;;1824474;77;21206;-80
2022/08/03 02:05:14;;;;;;;7.37;5.00;;;27.80;99.90;;;;;;1831240;77;21245;-79
2022/08/03 02:07:47;;;;;;;7.47;4.15;;;27.80;99.90;;;;;;1844010;77;21127;-82
2022/08/03 02:10:20;;;;;;;7.00;4.20;;;27.80;99.90;;;;;;1830650;77;21150;-81
2022/08/03 02:12:53;;;;;;;4.30;3.47;;;27.80;99.90;;;;;;1805268;78;21618;-80
2022/08/03 02:15:25;;;;;;;7.33;5.30;;;27.90;99.90;;;;;;1812369;78;21246;-79
2022/08/03 02:18:00;;;;;;;7.22;4.33;;;27.90;99.90;;;;;;1796320;78;21617;-80
2022/08/03 02:20:35;;;;;;;5.78;4.17;;;27.90;99.90;;;;;;1833688;77;21101;-81
2022/08/03 02:23:06;;;;;;;10.10;5.00;;;28.10;99.90;;;;;;1837875;77;21451;-81
2022/08/03 02:25:40;;;;;;;4.60;3.90;;;28.30;99.90;;;;;;1824603;76;21233;-79
2022/08/03 02:28:13;;;;;;;5.25;3.00;;;28.60;99.90;;;;;;1845273;77;21144;-79
2022/08/03 02:33:39;;;;;;;6.35;3.00;;;29.00;99.90;;;;;;1775234;80;21174;-78
2022/08/03 02:36:13;;;;;;;5.03;2.65;;;29.20;99.90;;;;;;1790849;80;21213;-80
2022/08/03 02:38:46;;;;;;;4.17;2.90;;;29.30;99.90;;;;;;1759456;80;21228;-79
2022/08/03 02:41:19;;;;;;;6.03;3.20;;;29.30;99.90;;;;;;1735908;81;21241;-79
2022/08/03 02:43:53;;;;;;;5.20;2.80;;;29.40;99.90;;;;;;1727360;81;21178;-78
2022/08/03 02:46:28;;;;;;;5.20;3.08;;;29.50;99.90;;;;;;1742087;81;21133;-79
2022/08/03 02:49:01;;;;;;;4.15;2.90;;;29.60;99.90;;;;;;1747571;81;21638;-80
2022/08/03 02:51:39;;;;;;;5.15;2.95;;;29.70;99.90;;;;;;1763109;77;21665;-79
2022/08/03 02:54:10;;;;;;;5.20;2.87;;;29.60;99.90;;;;;;1722420;82;21722;-80
2022/08/03 02:56:43;;;;;;;3.55;2.30;;;29.60;99.90;;;;;;1716048;83;21334;-79
2022/08/03 02:59:14;;;;;;;3.22;2.75;;;29.50;99.90;;;;;;1798980;79;21252;-81
2022/08/03 03:01:46;;;;;;;4.35;2.80;;;29.40;99.90;;;;;;1833241;77;21197;-79
2022/08/03 03:04:19;;;;;;;7.20;3.00;;;29.40;99.90;;;;;;1827540;77;21154;-79
2022/08/03 03:06:52;;;;;;;5.97;2.90;;;29.50;99.90;;;;;;1833244;77;21161;-81
2022/08/03 03:09:25;;;;;;;4.65;2.20;;;29.50;99.90;;;;;;1852767;77;21557;-79
2022/08/03 03:11:58;;;;;;;5.92;2.47;;;29.50;99.90;;;;;;1834282;76;21150;-80
2022/08/03 03:14:29;;;;;;;4.83;2.85;;;29.40;99.90;;;;;;1836970;77;21190;-80
2022/08/03 03:17:03;;;;;;;4.75;2.77;;;29.50;99.90;;;;;;1854149;76;21126;-79
2022/08/03 03:19:35;;;;;;;4.08;2.92;;;29.70;99.90;;;;;;1841211;77;21323;-80
2022/08/03 03:22:10;;;;;;;5.87;2.80;;;29.90;99.90;;;;;;1817106;78;21213;-80
2022/08/03 03:24:42;;;;;;;4.72;2.60;;;30.00;99.80;;;;;;1806253;78;21139;-81
2022/08/03 03:27:15;;;;;;;4.90;2.42;;;30.10;99.70;;;;;;1853395;77;21116;-78
2022/08/03 03:29:47;;;;;;;3.12;2.40;;;30.10;98.90;;;;;;1842037;77;21575;-79
2022/08/03 03:32:21;;;;;;;3.35;2.50;;;30.20;98.80;;;;;;1827628;77;21225;-79
2022/08/03 03:34:54;;;;;;;3.95;2.40;;;30.20;98.80;;;;;;1827664;78;21129;-78
2022/08/03 03:37:26;;;;;;;3.50;2.42;;;30.20;99.00;;;;;;1813831;78;21149;-79
2022/08/03 03:39:57;;;;;;;4.55;2.72;;;30.10;98.70;;;;;;1816889;78;21130;-80
2022/08/03 03:42:28;;;;;;;3.33;2.37;;;30.00;98.90;;;;;;1812408;78;21166;-80
2022/08/03 03:44:59;;;;;;;4.42;2.33;;;30.10;99.20;;;;;;1827334;78;21252;-80
2022/08/03 03:47:30;;;;;;;4.20;1.85;;;30.20;99.00;;;;;;1825676;78;21995;-80
2022/08/03 03:50:03;;;;;;;4.12;1.98;;;30.40;98.90;;;;;;1827125;78;21129;-79
2022/08/03 03:52:35;;;;;;;3.00;1.87;;;30.60;98.60;;;;;;1822201;78;21181;-81
2022/08/03 03:55:06;;;;;;;2.98;1.80;;;30.80;97.30;;;;;;1811753;78;21218;-80
2022/08/03 03:57:37;;;;;;;5.45;2.00;;;31.00;97.10;;;;;;1824613;77;21131;-81
2022/08/03 04:00:15;;;;;;;2.52;1.60;;;31.10;95.90;;;;;;1824931;78;21205;-81
2022/08/03 04:02:46;;;;;;;2.85;1.62;;;31.30;95.60;;;;;;1823843;78;21174;-79
2022/08/03 04:13:00;;;;;;;5.30;1.85;;;31.30;95.90;;;;;;1799527;78;21667;-78
2022/08/03 04:15:33;;;;;;;3.45;2.20;;;31.20;96.10;;;;;;1810254;78;21914;-79
2022/08/03 04:18:04;;;;;;;4.08;2.20;;;31.10;96.60;;;;;;1811360;78;21244;-79
2022/08/03 04:20:39;;;;;;;2.15;1.52;;;30.90;96.90;;;;;;1804070;78;21171;-80
2022/08/03 04:23:11;;;;;;;4.92;2.00;;;30.80;97.10;;;;;;1823262;78;21091;-80
2022/08/03 04:25:46;;;;;;;2.37;1.62;;;30.80;97.00;;;;;;1812519;78;21756;-81
2022/08/03 04:28:19;;;;;;;2.70;1.60;;;30.80;97.00;;;;;;1809778;78;21244;-80
2022/08/03 04:30:53;;;;;;;3.77;1.57;;;30.90;96.60;;;;;;1818373;77;21563;-81
2022/08/03 04:33:26;;;;;;;3.42;1.90;;;31.00;97.40;;;;;;1826060;77;21268;-81
2022/08/03 04:36:00;;;;;;;2.60;1.62;;;31.10;96.30;;;;;;1801546;78;21158;-80
2022/08/03 04:38:35;;;;;;;4.00;2.10;;;31.20;96.20;;;;;;1848448;77;21461;-78
2022/08/03 04:41:07;;;;;;;2.55;1.75;;;31.30;96.20;;;;;;1804428;79;21297;-79
2022/08/03 04:43:40;;;;;;;2.30;1.60;;;31.40;96.00;;;;;;1814085;78;21099;-82
2022/08/03 04:46:14;;;;;;;3.33;1.80;;;31.50;96.00;;;;;;1842721;77;21130;-81
2022/08/03 04:48:47;;;;;;;4.53;1.80;;;31.60;96.00;;;;;;1852909;77;21188;-80
2022/08/03 04:51:18;;;;;;;4.83;1.95;;;31.60;95.50;;;;;;1814440;79;21188;-81
2022/08/03 04:53:49;;;;;;;2.00;1.57;;;31.60;95.20;;;;;;1810360;78;21142;-79
2022/08/03 04:56:21;;;;;;;2.92;1.70;;;31.50;94.60;;;;;;1779903;79;21170;-81
2022/08/03 04:58:52;;;;;;;2.75;1.82;;;31.30;94.70;;;;;;1850917;76;21141;-79
2022/08/03 05:01:23;;;;;;;2.42;1.67;;;31.20;95.10;;;;;;1846476;76;21255;-80
2022/08/03 05:03:54;;;;;;;3.80;1.95;;;31.10;95.30;;;;;;1860142;75;21144;-79
2022/08/03 05:06:25;;;;;;;2.55;1.67;;;31.00;96.50;;;;;;1839410;77;21515;-81
2022/08/03 05:08:56;;;;;;;2.42;1.60;;;31.00;95.70;;;;;;1839711;77;21138;-81
2022/08/03 05:11:27;;;;;;;4.97;1.70;;;30.90;95.60;;;;;;1841129;77;21142;-79
2022/08/03 05:13:59;;;;;;;2.20;1.55;;;30.90;96.00;;;;;;1831492;77;21523;-84
2022/08/03 05:16:30;;;;;;;3.02;1.70;;;31.00;96.20;;;;;;1846738;74;21083;-85
2022/08/03 05:19:01;;;;;;;3.25;1.95;;;31.20;95.60;;;;;;1839818;74;21161;-85
2022/08/03 05:21:32;;;;;;;3.27;1.65;;;31.40;95.40;;;;;;1841870;77;21146;-84
2022/08/03 05:24:04;;;;;;;2.83;1.80;;;31.50;95.40;;;;;;1837769;77;21166;-84
2022/08/03 05:26:36;;;;;;;4.12;1.80;;;31.40;95.30;;;;;;1839163;76;21134;-80
2022/08/03 05:29:06;;;;;;;2.85;1.82;;;31.40;95.30;;;;;;1831960;78;21166;-81
2022/08/03 05:31:37;;;;;;;7.87;2.35;;;31.30;95.50;;;;;;1831400;78;21135;-81
2022/08/03 05:34:09;;;;;;;3.58;2.17;;;31.20;95.60;;;;;;1807496;77;21118;-81
2022/08/03 05:36:41;;;;;;;5.10;2.30;;;31.20;95.50;;;;;;1798678;78;21173;-80
2022/08/03 05:39:12;;;;;;;3.08;1.47;;;31.30;94.70;;;;;;1798352;79;21184;-79
2022/08/03 05:41:43;;;;;;;2.30;1.40;;;31.40;94.70;;;;;;1794396;79;21448;-81
2022/08/03 05:44:17;;;;;;;2.08;1.20;;;31.50;94.80;;;;;;1797998;78;21189;-79
2022/08/03 05:46:49;;;;;;;3.15;1.70;;;31.60;94.70;;;;;;1848177;77;21083;-79
2022/08/03 05:49:22;;;;;;;3.83;1.72;;;31.80;94.70;;;;;;1831842;77;21138;-80
2022/08/03 05:51:53;;;;;;;3.15;1.67;;;32.00;94.30;;;;;;1798608;80;21142;-80
2022/08/03 05:54:26;;;;;;;2.52;1.57;;;32.10;94.30;;;;;;1789616;78;21529;-81
2022/08/03 05:56:59;;;;;;;2.33;1.50;;;32.30;94.30;;;;;;1776940;77;21201;-81
2022/08/03 05:59:31;;;;;;;2.12;1.32;;;32.40;93.60;;;;;;1788770;79;21164;-82
2022/08/03 06:02:03;;;;;;;1.82;1.15;;;32.50;93.90;;;;;;1776337;79;21857;-83
2022/08/03 06:04:37;;;;;;;1.82;1.30;;;32.70;92.50;;;;;;1783389;78;21143;-81
2022/08/03 06:07:08;;;;;;;3.08;1.85;;;32.70;91.80;;;;;;1818557;78;21587;-83
2022/08/03 06:09:40;;;;;;;2.55;1.67;;;32.80;92.00;;;;;;1832224;77;21155;-80
2022/08/03 06:12:12;;;;;;;3.37;1.60;;;32.80;92.50;;;;;;1782265;78;21201;-81
2022/08/03 06:14:44;;;;;;;2.75;1.02;;;32.70;92.50;;;;;;1803016;78;21705;-81
2022/08/03 06:17:15;;;;;;;1.87;0.90;;;32.90;91.70;;;;;;1786559;80;21249;-83
2022/08/03 06:19:46;;;;;;;2.10;1.37;;;32.90;91.00;;;;;;1802751;77;21154;-82
2022/08/03 06:22:17;;;;;;;5.58;1.87;;;32.90;90.70;;;;;;1795960;78;21206;-82
2022/08/03 06:24:49;;;;;;;2.58;1.15;;;32.90;91.10;;;;;;1812324;77;21102;-80
2022/08/03 06:27:21;;;;;;;1.85;1.30;;;32.90;91.00;;;;;;1852884;76;21095;-80
2022/08/03 06:29:53;;;;;;;2.95;1.52;;;33.00;90.80;;;;;;1820344;76;21138;-82
2022/08/03 06:32:24;;;;;;;6.03;2.00;;;33.00;90.70;;;;;;1853783;77;21107;-80
2022/08/03 06:34:55;;;;;;;1.27;0.95;;;33.00;91.00;;;;;;1816393;77;21158;-80
2022/08/03 06:37:27;;;;;;;2.72;1.32;;;33.00;90.90;;;;;;1821962;77;21303;-82
2022/08/03 06:39:58;;;;;;;1.42;1.00;;;33.00;90.70;;;;;;1811090;78;21135;-81
2022/08/03 06:42:29;;;;;;;2.27;1.35;;;32.90;89.80;;;;;;1812236;77;21170;-82
2022/08/03 06:45:02;;;;;;;2.08;1.37;;;32.80;90.50;;;;;;1841616;78;21413;-81
2022/08/03 06:47:33;;;;;;;3.77;1.22;;;32.70;90.70;;;;;;1848898;77;21431;-72
2022/08/03 06:50:06;;;;;;;1.30;1.00;;;32.60;90.70;;;;;;1822555;77;21173;-72
2022/08/03 06:52:38;;;;;;;3.47;1.40;;;32.60;91.60;;;;;;1816236;77;21104;-72
2022/08/03 06:55:10;;;;;;;2.20;0.90;;;32.60;90.60;;;;;;1824584;77;21185;-71
2022/08/03 06:57:41;;;;;;;2.15;0.90;;;32.60;90.10;;;;;;1835199;77;21161;-71
2022/08/03 07:00:12;;;;;;;1.70;0.80;;;32.60;89.80;;;;;;1829328;78;21155;-69
2022/08/03 07:02:44;;;;;;;2.08;1.27;;;32.60;88.70;;;;;;1822510;78;21523;-71
2022/08/03 07:05:15;;;;;;;1.80;0.93;;;32.60;90.40;;;;;;1823730;78;21252;-70
2022/08/03 07:07:48;;;;;;;2.05;1.02;;;32.50;91.20;;;;;;1815740;78;21151;-70
2022/08/03 07:10:19;;;;;;;2.83;1.60;;;32.40;90.60;;;;;;1814961;77;21735;-71
2022/08/03 07:12:50;;;;;;;3.25;1.37;;;32.40;90.60;;;;;;1823616;78;21691;-71
2022/08/03 07:15:23;;;;;;;4.67;1.50;;;32.50;90.80;;;;;;1825404;78;21295;-70
2022/08/03 07:17:55;;;;;;;1.50;1.00;;;32.60;89.90;;;;;;1810402;78;21182;-70
2022/08/03 07:20:26;;;;;;;1.70;1.07;;;32.60;88.60;;;;;;1810028;79;21108;-70
2022/08/03 07:22:59;;;;;;;3.22;1.20;;;32.70;90.00;;;;;;1820284;77;21185;-70
2022/08/03 07:25:30;;;;;;;3.30;1.45;;;32.70;90.30;;;;;;1819176;78;21182;-69
2022/08/03 07:28:01;;;;;;;3.37;1.40;;;32.70;90.30;;;;;;1810621;78;21115;-70
2022/08/03 07:30:32;;;;;;;2.87;1.32;;;32.70;90.20;;;;;;1813946;79;21190;-70
2022/08/03 07:33:03;;;;;;;1.90;1.10;;;32.70;90.10;;;;;;1807750;78;21175;-70
2022/08/03 07:35:34;;;;;;;2.02;1.20;;;32.60;90.30;;;;;;1814667;79;21194;-70
2022/08/03 07:38:05;;;;;;;4.12;1.37;;;32.60;90.40;;;;;;1810387;78;21155;-71
2022/08/03 07:40:37;;;;;;;1.87;1.22;;;32.60;90.40;;;;;;1789777;79;21642;-70
2022/08/03 07:43:09;;;;;;;1.87;1.22;;;32.50;91.00;;;;;;1799322;78;21111;-70
2022/08/03 07:45:39;;;;;;;1.92;1.32;;;32.50;91.10;;;;;;1815194;77;21155;-70
2022/08/03 07:48:10;;;;;;;3.33;1.37;;;32.50;90.90;;;;;;1792616;79;21158;-70
2022/08/03 07:50:41;;;;;;;2.87;1.20;;;32.60;91.00;;;;;;1774489;79;21090;-70
2022/08/03 07:53:13;;;;;;;3.45;1.52;;;32.60;90.80;;;;;;1785324;79;22425;-69
2022/08/03 07:55:44;;;;;;;2.15;1.27;;;32.60;91.10;;;;;;1807752;79;21116;-70
2022/08/03 07:58:24;;;;;;;2.02;1.25;;;32.60;91.20;;;;;;1776977;79;21164;-71
2022/08/03 08:00:51;;;;;;;3.37;1.62;;;32.60;91.30;;;;;;1817844;79;21589;-70
2022/08/03 08:03:26;;;;;;;1.95;1.35;;;32.50;90.90;;;;;;1811070;79;21204;-68
2022/08/03 08:05:58;;;;;;;2.55;1.37;;;32.40;90.50;;;;;;1749574;79;21207;-69
2022/08/03 08:08:30;;;;;;;2.55;1.15;;;32.40;90.70;;;;;;1790475;79;21257;-71
2022/08/03 08:11:01;;;;;;;2.67;1.30;;;32.40;90.60;;;;;;1822183;77;21678;-71
2022/08/03 08:13:32;;;;;;;1.75;1.17;;;32.50;91.40;;;;;;1807235;79;21288;-71
2022/08/03 08:16:05;;;;;;;2.95;1.20;;;32.50;90.90;;;;;;1819294;78;21763;-72
2022/08/03 08:18:36;;;;;;;4.12;1.52;;;32.60;90.10;;;;;;1816320;77;21182;-71
2022/08/03 08:21:07;;;;;;;3.35;1.17;;;32.60;89.90;;;;;;1823271;77;21240;-70
2022/08/03 08:23:38;;;;;;;2.52;1.57;;;32.50;90.40;;;;;;1783910;79;21574;-70
2022/08/03 08:26:12;;;;;;;3.65;1.17;;;32.40;91.00;;;;;;1828774;77;21165;-72
2022/08/03 08:28:44;;;;;;;1.82;1.10;;;32.30;90.50;;;;;;1780700;80;21505;-71
2022/08/03 08:31:21;;;;;;;1.45;1.10;;;32.30;90.90;;;;;;1788272;80;21641;-70
2022/08/03 08:33:57;;;;;;;2.10;1.37;;;32.20;90.90;;;;;;1787645;79;21150;-71
2022/08/03 08:36:29;;;;;;;2.75;1.27;;;32.10;91.20;;;;;;1829118;77;21137;-71
2022/08/03 08:39:00;;;;;;;4.30;1.65;;;32.00;91.20;;;;;;1835186;77;21154;-73
2022/08/03 08:41:33;;;;;;;3.35;1.50;;;32.00;91.60;;;;;;1835048;77;21226;-72
2022/08/03 08:44:06;;;;;;;4.17;1.70;;;31.90;91.50;;;;;;1807633;79;21205;-73
2022/08/03 08:46:37;;;;;;;2.10;1.10;;;31.80;91.70;;;;;;1836911;77;21145;-71
2022/08/03 08:49:10;;;;;;;3.27;1.40;;;31.80;91.80;;;;;;1791043;78;21315;-73
2022/08/03 08:51:43;;;;;;;2.42;1.55;;;31.70;92.10;;;;;;1840515;77;21567;-72
2022/08/03 08:54:26;;;;;;;3.15;2.00;;;31.60;92.20;;;;;;1818782;77;21135;-72
2022/08/03 08:57:44;;;;;;;5.85;2.00;;;31.60;92.80;;;;;;1804528;76;21134;-73
2022/08/03 08:59:57;;;;;;;3.98;2.47;;;31.60;93.70;;;;;;1787917;78;21119;-72
2022/08/03 09:02:29;;;;;;;2.75;2.00;;;31.50;93.80;;;;;;1821623;78;21640;-73
2022/08/03 09:05:01;;;;;;;4.42;2.37;;;31.50;93.80;;;;;;1816605;78;21582;-71
2022/08/03 09:07:33;;;;;;;4.78;1.80;;;31.50;94.10;;;;;;1809434;78;21091;-71
2022/08/03 09:10:06;;;;;;;3.30;1.92;;;31.40;94.20;;;;;;1773521;80;21157;-71
2022/08/03 09:12:41;;;;;;;3.98;2.40;;;31.40;94.70;;;;;;1822161;78;21574;-71
2022/08/03 09:15:14;;;;;;;5.53;2.90;;;31.20;95.20;;;;;;1811986;77;21126;-72
2022/08/03 09:17:46;;;;;;;6.45;3.45;;;31.20;95.60;;;;;;1821122;78;21899;-72
2022/08/03 09:20:19;;;;;;;5.03;3.10;;;31.10;95.60;;;;;;1773521;80;21572;-73
2022/08/03 09:22:53;;;;;;;6.67;2.60;;;31.10;95.60;;;;;;1808631;78;21773;-70
2022/08/03 09:25:26;;;;;;;3.12;2.10;;;31.10;95.40;;;;;;1809428;78;21188;-71
2022/08/03 09:28:00;;;;;;;5.35;2.00;;;31.00;94.90;;;;;;1817695;78;21239;-71
2022/08/03 09:30:33;;;;;;;4.60;1.77;;;31.00;94.90;;;;;;1810142;77;21568;-72
2022/08/03 09:33:05;;;;;;;2.98;2.05;;;31.10;94.80;;;;;;1788790;80;21126;-73
2022/08/03 09:35:39;;;;;;;4.28;2.20;;;31.10;94.60;;;;;;1809330;77;21576;-72
2022/08/03 09:38:14;;;;;;;3.62;1.90;;;31.20;94.60;;;;;;1785108;79;21583;-72
2022/08/03 09:40:46;;;;;;;3.22;2.20;;;31.20;94.40;;;;;;1803282;78;21123;-72
2022/08/03 09:43:18;;;;;;;3.17;2.10;;;31.20;94.70;;;;;;1828594;77;21615;-72
2022/08/03 09:45:49;;;;;;;3.45;1.67;;;31.20;94.80;;;;;;1825125;77;21174;-71
2022/08/03 09:48:22;;;;;;;6.37;2.08;;;31.30;94.60;;;;;;1822013;77;21205;-72
2022/08/03 09:50:56;;;;;;;4.17;2.02;;;31.30;94.80;;;;;;1822065;78;21112;-73
2022/08/03 09:53:29;;;;;;;4.50;2.40;;;31.40;94.60;;;;;;1821278;77;21191;-71
2022/08/03 09:56:02;;;;;;;4.00;2.30;;;31.30;94.60;;;;;;1824775;77;21213;-71
2022/08/03 09:58:36;;;;;;;5.53;2.27;;;31.30;94.60;;;;;;1819006;78;21181;-72
2022/08/03 10:01:07;;;;;;;7.00;2.90;;;31.40;94.60;;;;;;1813899;77;21633;-72
2022/08/03 10:03:40;;;;;;;3.62;2.52;;;31.30;94.70;;;;;;1773787;80;21198;-72
2022/08/03 10:06:15;;;;;;;4.08;2.33;;;31.30;94.70;;;;;;1782930;79;21691;-72
2022/08/03 10:08:47;;;;;;;2.80;2.10;;;31.20;94.80;;;;;;1797514;77;21595;-72
2022/08/03 10:11:20;;;;;;;5.95;2.30;;;31.30;95.50;;;;;;1788595;78;21220;-72
2022/08/03 10:13:51;;;;;;;7.97;2.60;;;31.20;95.10;;;;;;1810651;77;21624;-72
2022/08/03 10:16:24;;;;;;;7.75;2.92;;;31.20;95.00;;;;;;1821264;77;21181;-70
2022/08/03 10:18:56;;;;;;;3.52;2.12;;;31.10;95.30;;;;;;1808710;77;21535;-68
2022/08/03 10:21:29;;;;;;;8.78;2.30;;;30.90;95.60;;;;;;1778668;80;21212;-70
2022/08/03 10:24:03;;;;;;;3.33;1.20;;;30.60;95.80;;;;;;1754707;81;21219;-70
2022/08/03 10:26:36;;;;;;;4.22;1.32;;;30.30;96.00;;;;;;1763888;80;21669;-73
2022/08/03 10:29:11;;;;;;;4.62;1.70;;;30.00;95.90;;;;;;1771531;80;21266;-71
2022/08/03 10:31:44;;;;;;;4.70;1.10;;;29.60;96.30;;;;;;1785129;79;21577;-72
2022/08/03 10:34:19;;;;;;;4.90;1.30;;;29.40;96.50;;;;;;1807039;79;21169;-71
2022/08/03 10:36:52;;;;;;;3.98;1.07;;;29.10;97.00;;;;;;1819838;78;21250;-68
2022/08/03 10:39:26;;;;;;;5.25;0.88;;;28.90;97.80;;;;;;1777838;79;21165;-70
2022/08/03 10:41:57;;;;;;;5.03;0.88;;;28.80;97.70;;;;;;1800293;78;21572;-72
2022/08/03 10:44:33;;;;;;;2.90;0.70;;;28.40;98.30;;;;;;1807026;77;21198;-71
2022/08/03 10:47:05;;;;;;;3.67;0.70;;;28.10;99.30;;;;;;1757293;80;21583;-71
2022/08/03 10:49:36;;;;;;;2.27;0.60;;;27.90;99.40;;;;;;1793817;78;21122;-71
2022/08/03 10:52:07;;;;;;;2.95;0.68;;;27.70;99.60;;;;;;1757789;81;21184;-71
2022/08/03 10:58:19;;;;;;;1.92;0.65;;;27.40;99.90;;;;;;1720459;82;21189;-74
2022/08/03 10:59:53;;;;;;;2.90;0.80;;;27.30;99.90;;;;;;1794647;78;21116;-70
2022/08/03 11:02:25;;;;;;;3.37;1.00;;;27.30;99.90;;;;;;1758883;80;21203;-71
2022/08/03 11:04:58;;;;;;;3.92;1.30;;;27.30;99.90;;;;;;1774781;79;21682;-70
2022/08/03 11:07:29;;;;;;;2.70;1.00;;;27.40;99.90;;;;;;1790333;77;21633;-71
2022/08/03 11:10:00;;;;;;;5.10;1.20;;;27.40;99.90;;;;;;1797879;78;21155;-71
2022/08/03 11:12:34;;;;;;;5.28;1.75;;;27.40;99.90;;;;;;1796915;79;21161;-71
2022/08/03 11:15:07;;;;;;;5.05;1.20;;;27.40;99.90;;;;;;1758258;80;21142;-71
2022/08/03 11:17:38;;;;;;;4.55;1.00;;;27.40;99.90;;;;;;1801148;78;21192;-70
2022/08/03 11:20:11;;;;;;;4.10;1.55;;;27.40;99.90;;;;;;1789801;78;21638;-71
2022/08/03 11:22:44;;;;;;;4.42;1.42;;;27.40;99.90;;;;;;1816341;79;21559;-70
2022/08/03 11:25:16;;;;;;;3.87;1.45;;;27.30;99.90;;;;;;1825322;78;21605;-71
2022/08/03 11:27:53;;;;;;;3.75;1.20;;;27.30;99.90;;;;;;1804426;78;21176;-71
2022/08/03 11:30:25;;;;;;;4.97;2.35;;;27.30;99.90;;;;;;1765475;80;21269;-70
2022/08/03 11:32:58;;;;;;;6.80;3.60;;;27.30;99.90;;;;;;1798764;79;21220;-70
2022/08/03 11:35:35;;;;;;;4.15;1.98;;;27.30;99.90;;;;;;1806674;79;21644;-70
2022/08/03 11:38:06;;;;;;;5.22;1.77;;;27.30;99.90;;;;;;1801110;79;21552;-70
2022/08/03 11:40:40;;;;;;;4.92;1.60;;;27.30;99.90;;;;;;1825319;77;21122;-71
2022/08/03 11:43:17;;;;;;;3.80;1.37;;;27.30;99.90;;;;;;1826294;77;21567;-71
2022/08/03 11:45:51;;;;;;;2.50;1.02;;;27.30;99.90;;;;;;1803807;78;21678;-70
2022/08/03 11:48:22;;;;;;;5.30;1.07;;;27.30;99.90;;;;;;1815744;78;21599;-70
2022/08/03 11:50:53;;;;;;;4.85;1.10;;;27.30;99.90;;;;;;1836572;78;21247;-70
2022/08/03 11:53:24;;;;;;;3.15;1.65;;;27.30;99.90;;;;;;1834127;78;21110;-70
2022/08/03 11:55:57;;;;;;;3.85;1.10;;;27.30;99.90;;;;;;1786723;80;21725;-70
2022/08/03 11:58:31;;;;;;;4.40;1.10;;;27.30;99.90;;;;;;1837100;77;21153;-72
2022/08/03 12:01:09;;;;;;;2.77;1.10;;;27.30;99.90;;;;;;1834020;77;21127;-70
2022/08/03 12:03:39;;;;;;;3.27;1.32;;;27.30;99.90;;;;;;1846360;77;21178;-70
2022/08/03 12:06:12;;;;;;;3.37;1.57;;;27.30;99.90;;;;;;1817274;78;21209;-71
2022/08/03 12:08:47;;;;;;;5.08;1.45;;;27.20;99.90;;;;;;1832757;77;21150;-70
2022/08/03 12:11:44;;;;;;;3.47;1.45;;;27.30;99.90;;;;;;1822077;77;21276;-70
2022/08/03 12:14:33;;;;;;;3.62;1.47;;;27.30;99.90;;;;;;1805634;79;21654;-71
2022/08/03 12:17:05;;;;;;;3.02;1.40;;;27.30;99.90;;;;;;1816750;78;21103;-71
2022/08/03 12:19:39;;;;;;;4.30;1.30;;;27.30;99.90;;;;;;1819884;77;21632;-70
2022/08/03 12:22:10;;;;;;;4.50;1.40;;;27.30;99.90;;;;;;1819991;79;22245;-71
2022/08/03 12:24:43;;;;;;;2.72;0.85;;;27.30;99.90;;;;;;1819204;79;21564;-71
2022/08/03 12:27:18;;;;;;;2.30;1.30;;;27.30;99.90;;;;;;1810258;78;21178;-71
2022/08/03 12:29:51;;;;;;;3.52;1.20;;;27.30;99.90;;;;;;1818949;78;21190;-70
2022/08/03 12:32:27;;;;;;;2.92;1.12;;;27.30;99.90;;;;;;1819762;77;21171;-71
2022/08/03 12:34:59;;;;;;;5.22;2.42;;;27.30;99.90;;;;;;1854519;77;21212;-71
2022/08/03 12:37:31;;;;;;;5.92;1.47;;;27.30;99.90;;;;;;1836295;77;21168;-71
2022/08/03 12:40:05;;;;;;;4.75;1.30;;;27.40;99.90;;;;;;1785114;80;21162;-71
2022/08/03 12:42:40;;;;;;;4.10;1.35;;;27.40;99.90;;;;;;1807843;77;21198;-71
2022/08/03 12:45:13;;;;;;;3.47;1.20;;;27.40;99.90;;;;;;1835423;77;21166;-71
2022/08/03 12:47:47;;;;;;;5.53;2.42;;;27.40;99.90;;;;;;1815869;77;21575;-71
2022/08/03 12:50:20;;;;;;;7.45;2.10;;;27.40;99.90;;;;;;1825406;77;21693;-70
2022/08/03 12:52:51;;;;;;;5.42;1.52;;;27.40;99.90;;;;;;1822164;78;21617;-70
2022/08/03 12:55:24;;;;;;;2.65;1.42;;;27.50;99.90;;;;;;1790252;79;21627;-71
2022/08/03 12:57:54;;;;;;;4.47;1.95;;;27.50;99.90;;;;;;1819226;78;21163;-70
2022/08/03 13:00:26;;;;;;;6.03;1.87;;;27.50;99.90;;;;;;1822255;78;21710;-71
2022/08/03 13:03:01;;;;;;;3.80;1.70;;;27.50;99.90;;;;;;1818182;78;21247;-71
2022/08/03 13:05:36;;;;;;;2.58;1.12;;;27.40;99.90;;;;;;1812491;77;21155;-70
2022/08/03 13:08:09;;;;;;;5.08;1.95;;;27.50;99.90;;;;;;1820553;78;21221;-71
2022/08/03 13:10:41;;;;;;;4.55;2.00;;;27.50;99.90;;;;;;1813485;79;21199;-71
2022/08/03 13:13:12;;;;;;;3.83;1.82;;;27.40;99.90;;;;;;1811019;78;21533;-71
2022/08/03 13:15:44;;;;;;;3.83;1.82;;;27.50;99.90;;;;;;1781757;80;21599;-71
2022/08/03 13:18:16;;;;;;;3.90;2.27;;;27.50;99.90;;;;;;1821761;77;21689;-70
2022/08/03 13:20:47;;;;;;;4.62;1.80;;;27.50;99.90;;;;;;1825500;78;21140;-70
2022/08/03 13:23:19;;;;;;;4.33;1.40;;;27.50;99.90;;;;;;1817400;78;21194;-71
2022/08/03 13:25:51;;;;;;;3.60;1.60;;;27.50;99.90;;;;;;1824821;78;21078;-71
2022/08/03 13:28:24;;;;;;;3.98;1.75;;;27.40;99.90;;;;;;1795826;78;21711;-70